createdAt,value
2018-11-26T00:04:15.603Z,4.80
2018-11-26T00:09:18.771Z,4.80
2018-11-26T00:14:21.922Z,4.80
2018-11-26T00:19:25.080Z,4.80
2018-11-26T00:24:28.210Z,4.80
2018-11-26T00:29:31.376Z,4.90
2018-11-26T00:34:34.555Z,4.80
2018-11-26T00:39:37.806Z,4.80
2018-11-26T00:44:40.979Z,4.70
2018-11-26T00:49:44.219Z,4.90
2018-11-26T00:54:47.423Z,4.90
2018-11-26T00:59:50.606Z,4.90
2018-11-26T01:04:53.742Z,4.80
2018-11-26T01:09:56.882Z,4.90
2018-11-26T01:15:00.012Z,4.80
2018-11-26T01:20:03.130Z,4.90
2018-11-26T01:25:06.278Z,4.80
2018-11-26T01:30:09.723Z,4.80
2018-11-26T01:35:12.902Z,4.80
2018-11-26T01:40:29.182Z,4.80
2018-11-26T01:45:32.310Z,4.90
2018-11-26T01:50:35.530Z,4.90
2018-11-26T01:55:38.647Z,4.80
2018-11-26T02:00:41.795Z,4.80
2018-11-26T02:05:44.910Z,4.80
2018-11-26T02:10:48.038Z,4.80
2018-11-26T02:15:51.158Z,4.80
2018-11-26T02:20:54.293Z,4.80
2018-11-26T02:25:57.430Z,4.70
2018-11-26T02:31:00.550Z,4.70
2018-11-26T02:36:03.714Z,4.90
2018-11-26T02:41:06.910Z,4.80
2018-11-26T02:46:10.031Z,4.80
2018-11-26T02:51:13.223Z,4.80
2018-11-26T02:56:16.360Z,4.70
2018-11-26T03:01:19.486Z,4.60
2018-11-26T03:06:22.610Z,4.70
2018-11-26T03:11:26.150Z,4.80
2018-11-26T03:16:29.282Z,4.70
2018-11-26T03:21:32.418Z,4.70
2018-11-26T03:26:35.538Z,4.70
2018-11-26T03:31:38.673Z,4.70
2018-11-26T03:36:41.787Z,4.70
2018-11-26T03:41:44.906Z,4.70
2018-11-26T03:46:48.018Z,4.80
2018-11-26T03:51:51.159Z,4.70
2018-11-26T03:56:54.275Z,4.70
2018-11-26T04:01:57.443Z,4.70
2018-11-26T04:07:00.566Z,4.80
2018-11-26T04:12:03.686Z,4.70
2018-11-26T04:17:06.822Z,4.80
2018-11-26T04:22:09.954Z,4.70
2018-11-26T04:27:13.088Z,4.70
2018-11-26T04:32:16.307Z,4.60
2018-11-26T04:37:19.428Z,4.70
2018-11-26T04:42:22.610Z,4.60
2018-11-26T04:47:25.818Z,4.70
2018-11-26T04:52:29.083Z,4.70
2018-11-26T04:57:32.210Z,4.60
2018-11-26T05:02:35.330Z,4.60
2018-11-26T05:07:38.560Z,4.60
2018-11-26T05:12:41.791Z,4.60
2018-11-26T05:17:44.932Z,4.60
2018-11-26T05:22:48.096Z,4.50
2018-11-26T05:27:51.658Z,4.60
2018-11-26T05:32:54.777Z,4.50
2018-11-26T05:37:57.913Z,4.50
2018-11-26T05:43:01.238Z,4.60
2018-11-26T05:48:04.480Z,4.70
2018-11-26T05:53:07.617Z,4.60
2018-11-26T05:58:10.742Z,4.50
2018-11-26T06:03:13.881Z,4.60
2018-11-26T06:08:17.014Z,4.50
2018-11-26T06:13:20.138Z,4.60
2018-11-26T06:18:23.266Z,4.60
2018-11-26T06:23:26.413Z,4.70
2018-11-26T06:28:29.575Z,4.60
2018-11-26T06:33:34.798Z,4.70
2018-11-26T06:38:37.916Z,4.70
2018-11-26T06:43:41.094Z,4.70
2018-11-26T06:48:45.354Z,4.60
2018-11-26T06:53:47.450Z,4.70
2018-11-26T06:58:50.571Z,4.90
2018-11-26T07:03:53.694Z,4.80
2018-11-26T07:08:56.875Z,4.80
2018-11-26T07:14:00.083Z,5.00
2018-11-26T07:19:03.251Z,5.00
2018-11-26T07:24:06.390Z,5.00
2018-11-26T07:29:09.614Z,5.10
2018-11-26T07:34:12.791Z,5.10
2018-11-26T07:39:15.918Z,5.10
2018-11-26T07:44:19.045Z,5.20
2018-11-26T07:49:23.369Z,5.20
2018-11-26T07:54:25.358Z,5.20
2018-11-26T07:59:28.511Z,5.30
2018-11-26T08:04:31.659Z,5.20
2018-11-26T08:09:34.773Z,5.20
2018-11-26T08:14:37.915Z,5.20
2018-11-26T08:19:41.142Z,5.30
2018-11-26T08:24:44.265Z,5.40
2018-11-26T08:29:47.406Z,5.40
2018-11-26T08:34:50.562Z,5.50
2018-11-26T08:39:56.163Z,5.40
2018-11-26T08:45:04.682Z,5.40
2018-11-26T08:50:09.189Z,5.40
2018-11-26T08:55:12.418Z,5.50
2018-11-26T09:00:15.592Z,5.50
2018-11-26T09:05:24.243Z,5.60
2018-11-26T09:10:25.625Z,5.50
2018-11-26T09:15:28.750Z,5.50
2018-11-26T09:20:31.902Z,5.50
2018-11-26T09:25:35.857Z,5.60
2018-11-26T09:30:38.992Z,5.60
2018-11-26T09:35:42.122Z,5.70
2018-11-26T09:40:45.253Z,5.60
2018-11-26T09:45:48.377Z,5.70
2018-11-26T09:50:51.514Z,5.60
2018-11-26T09:55:54.650Z,5.70
2018-11-26T10:00:57.774Z,5.70
2018-11-26T10:06:00.956Z,5.60
2018-11-26T10:11:04.070Z,5.60
2018-11-26T10:16:07.305Z,5.70
2018-11-26T10:21:10.438Z,5.80
2018-11-26T10:26:13.577Z,5.70
2018-11-26T10:31:16.697Z,5.70
2018-11-26T10:36:19.826Z,5.90
2018-11-26T10:41:22.969Z,5.80
2018-11-26T10:46:26.101Z,5.90
2018-11-26T10:51:29.236Z,6.00
2018-11-26T10:56:32.363Z,6.00
2018-11-26T11:01:43.924Z,6.20
2018-11-26T11:06:47.074Z,6.20
2018-11-26T11:11:50.210Z,6.30
2018-11-26T11:16:53.407Z,6.30
2018-11-26T11:21:56.533Z,6.40
2018-11-26T11:26:59.670Z,6.40
2018-11-26T11:32:02.804Z,6.40
2018-11-26T11:37:06.179Z,6.40
2018-11-26T11:42:09.319Z,6.60
2018-11-26T11:47:12.547Z,6.60
2018-11-26T11:52:15.693Z,6.60
2018-11-26T11:57:18.835Z,6.50
2018-11-26T12:02:22.047Z,6.50
2018-11-26T12:07:25.193Z,6.50
2018-11-26T12:12:28.320Z,6.50
2018-11-26T12:17:31.455Z,6.50
2018-11-26T12:22:34.633Z,6.50
2018-11-26T12:27:37.866Z,6.50
2018-11-26T12:32:40.983Z,6.60
2018-11-26T12:37:44.199Z,6.70
2018-11-26T12:42:47.596Z,6.50
2018-11-26T12:47:50.819Z,6.50
2018-11-26T12:52:54.037Z,6.60
2018-11-26T12:57:57.884Z,6.50
2018-11-26T13:03:05.104Z,6.30
2018-11-26T13:08:08.671Z,6.30
2018-11-26T13:13:11.887Z,6.30
2018-11-26T13:18:15.040Z,6.30
2018-11-26T13:23:18.163Z,6.10
2018-11-26T13:28:21.311Z,6.10
2018-11-26T13:33:24.440Z,6.10
2018-11-26T13:38:27.565Z,6.00
2018-11-26T13:43:30.692Z,6.10
2018-11-26T13:48:33.844Z,6.00
2018-11-26T13:53:36.976Z,6.10
2018-11-26T13:58:40.183Z,6.00
2018-11-26T14:03:43.339Z,6.00
2018-11-26T14:08:46.515Z,6.10
2018-11-26T14:13:50.876Z,5.90
2018-11-26T14:18:54.006Z,5.90
2018-11-26T14:23:57.136Z,5.90
2018-11-26T14:29:00.384Z,5.80
2018-11-26T14:34:03.526Z,5.70
2018-11-26T14:39:08.079Z,5.70
2018-11-26T14:46:25.851Z,6.10
2018-11-26T14:51:29.064Z,12.30
2018-11-26T14:56:32.192Z,15.60
2018-11-26T15:01:35.332Z,17.50
2018-11-26T15:06:38.487Z,18.50
2018-11-26T15:11:41.604Z,19.00
2018-11-26T15:16:44.719Z,19.30
2018-11-26T15:21:47.843Z,19.60
2018-11-26T15:26:53.244Z,19.70
2018-11-26T15:31:54.247Z,19.90
2018-11-26T15:36:57.440Z,20.10
2018-11-26T15:42:00.655Z,20.10
2018-11-26T15:47:03.775Z,20.10
2018-11-26T15:52:07.016Z,20.20
2018-11-26T15:57:11.899Z,20.40
2018-11-26T16:02:15.168Z,20.40
2018-11-26T16:07:18.489Z,20.50
2018-11-26T16:12:21.680Z,20.50
2018-11-26T16:17:24.899Z,20.60
2018-11-26T16:22:28.052Z,20.60
2018-11-26T16:27:31.192Z,20.60
2018-11-26T16:32:34.311Z,20.60
2018-11-26T16:37:37.440Z,20.60
2018-11-26T16:42:40.567Z,20.60
2018-11-26T16:47:44.403Z,20.60
2018-11-26T16:52:47.719Z,20.70
2018-11-26T16:57:50.867Z,20.70
2018-11-26T17:02:58.304Z,20.70
2018-11-26T17:08:01.428Z,20.70
2018-11-26T17:13:04.940Z,20.70
2018-11-26T17:18:08.268Z,20.70
2018-11-26T17:23:11.448Z,20.70
2018-11-26T17:28:14.575Z,20.80
2018-11-26T17:33:17.797Z,20.80
2018-11-26T17:38:20.892Z,20.80
2018-11-26T17:43:24.032Z,20.80
2018-11-26T17:48:27.285Z,20.80
2018-11-26T18:01:38.302Z,20.70
2018-11-26T18:06:41.544Z,20.70
2018-11-26T18:11:44.723Z,20.70
2018-11-26T18:16:47.967Z,20.70
2018-11-26T18:21:51.159Z,20.70
2018-11-26T18:26:54.305Z,20.60
2018-11-26T18:31:57.452Z,20.60
2018-11-26T18:37:00.575Z,20.60
2018-11-26T18:42:03.695Z,20.70
2018-11-26T18:47:06.828Z,20.70
2018-11-26T18:52:09.945Z,20.70
2018-11-26T18:57:13.076Z,20.70
2018-11-26T19:02:16.200Z,20.70
2018-11-26T19:07:19.422Z,20.80
2018-11-26T19:12:22.668Z,20.80
2018-11-26T19:17:25.825Z,20.80
2018-11-26T19:22:29.041Z,20.80
2018-11-26T19:27:32.204Z,20.80
2018-11-26T19:32:35.354Z,20.80
2018-11-26T19:37:38.560Z,20.70
2018-11-26T19:42:42.687Z,20.70
2018-11-26T19:47:46.052Z,20.70
2018-11-26T19:52:51.243Z,20.70
2018-11-26T19:57:55.987Z,20.70
2018-11-26T20:03:37.779Z,20.70
2018-11-26T20:08:41.627Z,20.70
2018-11-26T20:13:44.783Z,20.70
2018-11-26T20:18:47.912Z,20.70
2018-11-26T20:23:51.066Z,20.70
2018-11-26T20:28:56.935Z,20.70
2018-11-26T20:33:57.420Z,20.70
2018-11-26T20:39:00.554Z,20.70
2018-11-26T20:44:03.672Z,20.70
2018-11-26T20:49:07.919Z,20.70
2018-11-26T20:54:11.148Z,20.70
2018-11-26T20:59:14.284Z,20.70
2018-11-26T21:04:17.420Z,20.60
2018-11-26T21:09:20.593Z,20.60
2018-11-26T21:14:23.716Z,20.60
2018-11-26T21:19:26.840Z,20.60
2018-11-26T21:24:29.967Z,20.60
2018-11-26T21:29:33.104Z,20.60
2018-11-26T21:34:36.328Z,20.60
2018-11-26T21:39:39.528Z,20.60
2018-11-26T21:44:42.659Z,20.60
2018-11-26T21:49:45.782Z,20.60
2018-11-26T21:54:48.905Z,20.60
2018-11-26T21:59:52.024Z,20.60
2018-11-26T22:04:55.181Z,20.60
2018-11-26T22:09:58.308Z,20.60
2018-11-26T22:15:01.472Z,20.60
2018-11-26T22:20:07.131Z,20.60
2018-11-26T22:25:11.168Z,20.60
2018-11-26T22:30:21.437Z,20.60
2018-11-26T22:35:24.583Z,20.50
2018-11-26T22:40:27.771Z,20.50
2018-11-26T22:45:32.895Z,20.50
2018-11-26T22:50:37.148Z,20.50
2018-11-26T22:55:40.415Z,20.50
2018-11-26T23:00:48.987Z,20.50
2018-11-26T23:05:52.108Z,20.50
2018-11-26T23:10:55.232Z,20.50
2018-11-26T23:15:58.444Z,20.50
2018-11-26T23:21:01.602Z,20.50
2018-11-26T23:26:04.722Z,20.50
2018-11-26T23:31:07.835Z,20.50
2018-11-26T23:36:10.976Z,20.50
2018-11-26T23:41:14.095Z,20.50
2018-11-26T23:46:17.285Z,20.50
2018-11-26T23:51:20.401Z,20.50
2018-11-26T23:56:23.515Z,20.40
